sensor_id;sensor_type;location;lat;lon;timestamp;P1;durP1;ratioP1;P2;durP2;ratioP2
42092;SDS011;28974;50.316;18.960;2022-11-15T00:05:17;313.08;;;47.22;;
42092;SDS011;28974;50.316;18.960;2022-11-15T00:17:36;264.33;;;41.90;;
42092;SDS011;28974;50.316;18.960;2022-11-15T00:29:55;190.63;;;39.40;;
42092;SDS011;28974;50.316;18.960;2022-11-15T00:42:14;254.43;;;39.33;;
42092;SDS011;28974;50.316;18.960;2022-11-15T00:54:33;225.32;;;40.10;;
42092;SDS011;28974;50.316;18.960;2022-11-15T01:06:52;285.45;;;42.90;;
42092;SDS011;28974;50.316;18.960;2022-11-15T01:19:10;249.35;;;39.40;;
42092;SDS011;28974;50.316;18.960;2022-11-15T01:31:30;202.32;;;35.45;;
42092;SDS011;28974;50.316;18.960;2022-11-15T01:43:51;246.48;;;40.08;;
42092;SDS011;28974;50.316;18.960;2022-11-15T01:56:11;222.55;;;35.35;;
42092;SDS011;28974;50.316;18.960;2022-11-15T02:08:31;175.05;;;32.65;;
42092;SDS011;28974;50.316;18.960;2022-11-15T02:21:12;108.60;;;28.55;;
42092;SDS011;28974;50.316;18.960;2022-11-15T02:46:06;173.85;;;31.23;;
42092;SDS011;28974;50.316;18.960;2022-11-15T02:58:40;148.80;;;31.50;;
42092;SDS011;28974;50.316;18.960;2022-11-15T03:23:23;185.40;;;32.25;;
42092;SDS011;28974;50.316;18.960;2022-11-15T03:35:43;96.72;;;27.23;;
42092;SDS011;28974;50.316;18.960;2022-11-15T03:48:20;293.05;;;37.83;;
42092;SDS011;28974;50.316;18.960;2022-11-15T04:00:40;197.93;;;31.07;;
42092;SDS011;28974;50.316;18.960;2022-11-15T04:12:59;92.53;;;27.20;;
42092;SDS011;28974;50.316;18.960;2022-11-15T04:25:18;230.30;;;36.00;;
42092;SDS011;28974;50.316;18.960;2022-11-15T04:37:37;144.15;;;28.10;;
42092;SDS011;28974;50.316;18.960;2022-11-15T04:49:56;111.70;;;24.55;;
42092;SDS011;28974;50.316;18.960;2022-11-15T05:02:14;162.38;;;26.00;;
42092;SDS011;28974;50.316;18.960;2022-11-15T05:14:33;149.82;;;29.50;;
42092;SDS011;28974;50.316;18.960;2022-11-15T05:26:52;130.80;;;30.75;;
42092;SDS011;28974;50.316;18.960;2022-11-15T05:39:11;205.07;;;35.50;;
42092;SDS011;28974;50.316;18.960;2022-11-15T05:51:30;261.10;;;42.92;;
42092;SDS011;28974;50.316;18.960;2022-11-15T06:03:49;158.50;;;29.52;;
42092;SDS011;28974;50.316;18.960;2022-11-15T06:16:08;230.95;;;31.48;;
42092;SDS011;28974;50.316;18.960;2022-11-15T06:28:28;221.45;;;36.13;;
42092;SDS011;28974;50.316;18.960;2022-11-15T06:40:47;402.48;;;53.30;;
42092;SDS011;28974;50.316;18.960;2022-11-15T06:53:05;168.10;;;41.88;;
42092;SDS011;28974;50.316;18.960;2022-11-15T07:05:24;144.65;;;36.75;;
42092;SDS011;28974;50.316;18.960;2022-11-15T07:17:44;102.90;;;37.10;;
42092;SDS011;28974;50.316;18.960;2022-11-15T07:30:03;115.00;;;39.80;;
42092;SDS011;28974;50.316;18.960;2022-11-15T07:42:22;120.05;;;42.13;;
42092;SDS011;28974;50.316;18.960;2022-11-15T07:55:01;98.32;;;42.22;;
42092;SDS011;28974;50.316;18.960;2022-11-15T08:07:20;98.70;;;43.95;;
42092;SDS011;28974;50.316;18.960;2022-11-15T08:19:39;114.30;;;49.22;;
42092;SDS011;28974;50.316;18.960;2022-11-15T08:31:58;131.63;;;53.88;;
42092;SDS011;28974;50.316;18.960;2022-11-15T08:44:17;127.45;;;54.20;;
42092;SDS011;28974;50.316;18.960;2022-11-15T08:56:36;142.63;;;54.58;;
42092;SDS011;28974;50.316;18.960;2022-11-15T09:08:55;135.68;;;57.42;;
42092;SDS011;28974;50.316;18.960;2022-11-15T09:21:14;132.40;;;56.17;;
42092;SDS011;28974;50.316;18.960;2022-11-15T09:33:33;108.35;;;49.75;;
42092;SDS011;28974;50.316;18.960;2022-11-15T09:45:59;78.15;;;39.60;;
42092;SDS011;28974;50.316;18.960;2022-11-15T09:58:36;73.97;;;34.70;;
42092;SDS011;28974;50.316;18.960;2022-11-15T10:10:39;75.38;;;36.78;;
42092;SDS011;28974;50.316;18.960;2022-11-15T10:22:43;68.50;;;31.95;;
42092;SDS011;28974;50.316;18.960;2022-11-15T10:34:44;63.35;;;32.35;;
42092;SDS011;28974;50.316;18.960;2022-11-15T10:46:46;74.70;;;35.83;;
42092;SDS011;28974;50.316;18.960;2022-11-15T10:58:55;70.82;;;34.05;;
42092;SDS011;28974;50.316;18.960;2022-11-15T11:23:05;74.97;;;35.67;;
42092;SDS011;28974;50.316;18.960;2022-11-15T11:35:12;73.60;;;33.90;;
42092;SDS011;28974;50.316;18.960;2022-11-15T11:59:33;69.28;;;33.33;;
42092;SDS011;28974;50.316;18.960;2022-11-15T12:23:49;71.50;;;28.38;;
42092;SDS011;28974;50.316;18.960;2022-11-15T12:35:57;68.97;;;30.55;;
42092;SDS011;28974;50.316;18.960;2022-11-15T13:00:36;63.78;;;30.25;;
42092;SDS011;28974;50.316;18.960;2022-11-15T13:24:47;83.20;;;38.80;;
42092;SDS011;28974;50.316;18.960;2022-11-15T13:36:48;89.95;;;43.05;;
42092;SDS011;28974;50.316;18.960;2022-11-15T13:48:51;94.32;;;43.60;;
42092;SDS011;28974;50.316;18.960;2022-11-15T14:01:02;107.10;;;46.15;;
42092;SDS011;28974;50.316;18.960;2022-11-15T14:13:03;126.85;;;51.80;;
42092;SDS011;28974;50.316;18.960;2022-11-15T14:25:06;122.68;;;52.75;;
42092;SDS011;28974;50.316;18.960;2022-11-15T14:37:16;117.90;;;53.95;;
42092;SDS011;28974;50.316;18.960;2022-11-15T14:49:18;130.30;;;56.75;;
42092;SDS011;28974;50.316;18.960;2022-11-15T15:13:23;127.32;;;57.63;;
42092;SDS011;28974;50.316;18.960;2022-11-15T15:25:33;129.15;;;59.58;;
42092;SDS011;28974;50.316;18.960;2022-11-15T15:37:34;137.40;;;61.35;;
42092;SDS011;28974;50.316;18.960;2022-11-15T15:49:35;157.23;;;65.72;;
42092;SDS011;28974;50.316;18.960;2022-11-15T16:01:35;130.52;;;59.22;;
42092;SDS011;28974;50.316;18.960;2022-11-15T16:13:36;232.80;;;102.22;;
42092;SDS011;28974;50.316;18.960;2022-11-15T16:25:40;222.45;;;110.50;;
42092;SDS011;28974;50.316;18.960;2022-11-15T16:37:41;167.57;;;81.38;;
42092;SDS011;28974;50.316;18.960;2022-11-15T16:49:43;154.90;;;72.90;;
42092;SDS011;28974;50.316;18.960;2022-11-15T17:01:44;157.38;;;76.45;;
42092;SDS011;28974;50.316;18.960;2022-11-15T17:13:49;191.20;;;83.40;;
42092;SDS011;28974;50.316;18.960;2022-11-15T17:25:57;170.68;;;75.78;;
42092;SDS011;28974;50.316;18.960;2022-11-15T17:37:57;169.23;;;69.63;;
42092;SDS011;28974;50.316;18.960;2022-11-15T17:49:57;166.13;;;70.30;;
42092;SDS011;28974;50.316;18.960;2022-11-15T18:01:58;156.70;;;69.47;;
42092;SDS011;28974;50.316;18.960;2022-11-15T18:13:59;146.75;;;66.22;;
42092;SDS011;28974;50.316;18.960;2022-11-15T18:26:00;197.43;;;88.47;;
42092;SDS011;28974;50.316;18.960;2022-11-15T18:38:01;169.48;;;78.68;;
42092;SDS011;28974;50.316;18.960;2022-11-15T18:50:01;169.48;;;77.45;;
42092;SDS011;28974;50.316;18.960;2022-11-15T19:02:01;178.85;;;80.40;;
42092;SDS011;28974;50.316;18.960;2022-11-15T19:14:03;172.48;;;76.22;;
42092;SDS011;28974;50.316;18.960;2022-11-15T19:26:04;186.55;;;82.65;;
42092;SDS011;28974;50.316;18.960;2022-11-15T19:38:04;209.95;;;90.25;;
42092;SDS011;28974;50.316;18.960;2022-11-15T19:50:05;208.20;;;94.68;;
42092;SDS011;28974;50.316;18.960;2022-11-15T20:02:05;185.63;;;82.80;;
42092;SDS011;28974;50.316;18.960;2022-11-15T20:14:05;188.70;;;80.47;;
42092;SDS011;28974;50.316;18.960;2022-11-15T20:26:08;194.13;;;81.30;;
42092;SDS011;28974;50.316;18.960;2022-11-15T20:38:09;237.43;;;99.93;;
42092;SDS011;28974;50.316;18.960;2022-11-15T20:50:10;216.90;;;98.35;;
42092;SDS011;28974;50.316;18.960;2022-11-15T21:02:13;183.88;;;82.47;;
42092;SDS011;28974;50.316;18.960;2022-11-15T21:14:14;214.77;;;92.80;;
42092;SDS011;28974;50.316;18.960;2022-11-15T21:26:14;256.80;;;102.13;;
42092;SDS011;28974;50.316;18.960;2022-11-15T21:38:14;208.35;;;94.45;;
42092;SDS011;28974;50.316;18.960;2022-11-15T21:50:15;210.43;;;88.90;;
42092;SDS011;28974;50.316;18.960;2022-11-15T22:02:15;216.73;;;93.80;;
42092;SDS011;28974;50.316;18.960;2022-11-15T22:14:15;213.10;;;89.10;;
42092;SDS011;28974;50.316;18.960;2022-11-15T22:26:17;199.18;;;84.22;;
42092;SDS011;28974;50.316;18.960;2022-11-15T22:38:17;204.77;;;89.32;;
42092;SDS011;28974;50.316;18.960;2022-11-15T22:50:18;207.88;;;91.72;;
42092;SDS011;28974;50.316;18.960;2022-11-15T23:02:18;218.73;;;89.70;;
42092;SDS011;28974;50.316;18.960;2022-11-15T23:14:18;197.07;;;83.18;;
42092;SDS011;28974;50.316;18.960;2022-11-15T23:26:19;201.70;;;86.88;;
42092;SDS011;28974;50.316;18.960;2022-11-15T23:38:19;194.65;;;83.38;;
42092;SDS011;28974;50.316;18.960;2022-11-15T23:50:20;199.45;;;87.45;;
